sensor_id;sensor_type;location;lat;lon;timestamp;P1;durP1;ratioP1;P2;durP2;ratioP2
16854;SDS011;8543;54.522;18.550;2022-08-05T00:01:21;6.90;;;6.20;;
16854;SDS011;8543;54.522;18.550;2022-08-05T00:03:47;7.20;;;6.50;;
16854;SDS011;8543;54.522;18.550;2022-08-05T00:06:13;7.30;;;6.30;;
16854;SDS011;8543;54.522;18.550;2022-08-05T00:08:40;7.00;;;6.00;;
16854;SDS011;8543;54.522;18.550;2022-08-05T00:11:09;7.00;;;6.30;;
16854;SDS011;8543;54.522;18.550;2022-08-05T00:13:37;7.30;;;6.50;;
16854;SDS011;8543;54.522;18.550;2022-08-05T00:16:04;7.00;;;5.90;;
16854;SDS011;8543;54.522;18.550;2022-08-05T00:18:30;9.10;;;6.20;;
16854;SDS011;8543;54.522;18.550;2022-08-05T00:20:55;6.60;;;5.50;;
16854;SDS011;8543;54.522;18.550;2022-08-05T00:23:21;7.70;;;6.40;;
16854;SDS011;8543;54.522;18.550;2022-08-05T00:25:47;8.10;;;5.70;;
16854;SDS011;8543;54.522;18.550;2022-08-05T00:28:13;7.00;;;5.80;;
16854;SDS011;8543;54.522;18.550;2022-08-05T00:30:39;7.80;;;5.90;;
16854;SDS011;8543;54.522;18.550;2022-08-05T00:33:05;6.90;;;5.90;;
16854;SDS011;8543;54.522;18.550;2022-08-05T00:35:30;10.30;;;6.10;;
16854;SDS011;8543;54.522;18.550;2022-08-05T00:37:55;6.30;;;5.60;;
16854;SDS011;8543;54.522;18.550;2022-08-05T00:40:22;6.40;;;5.80;;
16854;SDS011;8543;54.522;18.550;2022-08-05T00:42:48;7.10;;;6.10;;
16854;SDS011;8543;54.522;18.550;2022-08-05T00:45:14;8.60;;;5.70;;
16854;SDS011;8543;54.522;18.550;2022-08-05T00:47:39;6.50;;;5.60;;
16854;SDS011;8543;54.522;18.550;2022-08-05T00:50:05;7.10;;;5.90;;
16854;SDS011;8543;54.522;18.550;2022-08-05T00:52:32;7.60;;;6.80;;
16854;SDS011;8543;54.522;18.550;2022-08-05T00:54:57;9.90;;;8.90;;
16854;SDS011;8543;54.522;18.550;2022-08-05T00:57:22;8.70;;;7.90;;
16854;SDS011;8543;54.522;18.550;2022-08-05T00:59:48;8.40;;;7.50;;
16854;SDS011;8543;54.522;18.550;2022-08-05T01:02:13;10.30;;;8.80;;
16854;SDS011;8543;54.522;18.550;2022-08-05T01:04:39;10.40;;;8.60;;
16854;SDS011;8543;54.522;18.550;2022-08-05T01:07:04;10.10;;;8.80;;
16854;SDS011;8543;54.522;18.550;2022-08-05T01:09:30;15.40;;;10.50;;
16854;SDS011;8543;54.522;18.550;2022-08-05T01:11:56;14.30;;;9.60;;
16854;SDS011;8543;54.522;18.550;2022-08-05T01:14:40;13.10;;;9.40;;
16854;SDS011;8543;54.522;18.550;2022-08-05T01:23:10;10.70;;;9.40;;
16854;SDS011;8543;54.522;18.550;2022-08-05T01:33:50;11.90;;;10.40;;
16854;SDS011;8543;54.522;18.550;2022-08-05T01:36:24;9.30;;;8.20;;
16854;SDS011;8543;54.522;18.550;2022-08-05T01:38:51;9.50;;;8.20;;
16854;SDS011;8543;54.522;18.550;2022-08-05T01:41:18;9.60;;;8.60;;
16854;SDS011;8543;54.522;18.550;2022-08-05T01:43:45;10.00;;;9.00;;
16854;SDS011;8543;54.522;18.550;2022-08-05T01:46:12;10.10;;;9.10;;
16854;SDS011;8543;54.522;18.550;2022-08-05T01:48:38;10.50;;;8.80;;
16854;SDS011;8543;54.522;18.550;2022-08-05T01:51:04;9.90;;;8.90;;
16854;SDS011;8543;54.522;18.550;2022-08-05T01:53:30;9.80;;;8.80;;
16854;SDS011;8543;54.522;18.550;2022-08-05T01:55:56;8.50;;;7.60;;
16854;SDS011;8543;54.522;18.550;2022-08-05T01:58:24;7.90;;;7.10;;
16854;SDS011;8543;54.522;18.550;2022-08-05T02:00:51;9.90;;;7.90;;
16854;SDS011;8543;54.522;18.550;2022-08-05T02:03:51;10.50;;;7.60;;
16854;SDS011;8543;54.522;18.550;2022-08-05T02:06:10;8.80;;;7.90;;
16854;SDS011;8543;54.522;18.550;2022-08-05T02:08:36;10.60;;;8.50;;
16854;SDS011;8543;54.522;18.550;2022-08-05T02:11:11;8.60;;;7.80;;
16854;SDS011;8543;54.522;18.550;2022-08-05T02:16:51;8.00;;;7.10;;
16854;SDS011;8543;54.522;18.550;2022-08-05T02:22:01;8.60;;;7.10;;
16854;SDS011;8543;54.522;18.550;2022-08-05T02:27:04;7.70;;;7.00;;
16854;SDS011;8543;54.522;18.550;2022-08-05T02:29:31;8.30;;;7.20;;
16854;SDS011;8543;54.522;18.550;2022-08-05T02:31:58;10.60;;;8.20;;
16854;SDS011;8543;54.522;18.550;2022-08-05T02:34:25;9.40;;;8.20;;
16854;SDS011;8543;54.522;18.550;2022-08-05T02:36:54;10.50;;;9.30;;
16854;SDS011;8543;54.522;18.550;2022-08-05T02:39:22;10.80;;;8.50;;
16854;SDS011;8543;54.522;18.550;2022-08-05T02:41:48;13.30;;;9.50;;
16854;SDS011;8543;54.522;18.550;2022-08-05T02:44:15;9.30;;;8.30;;
16854;SDS011;8543;54.522;18.550;2022-08-05T02:46:42;10.30;;;8.80;;
16854;SDS011;8543;54.522;18.550;2022-08-05T02:49:09;9.50;;;8.60;;
16854;SDS011;8543;54.522;18.550;2022-08-05T02:51:37;13.50;;;7.90;;
16854;SDS011;8543;54.522;18.550;2022-08-05T02:54:03;9.20;;;8.30;;
16854;SDS011;8543;54.522;18.550;2022-08-05T02:56:30;8.40;;;7.40;;
16854;SDS011;8543;54.522;18.550;2022-08-05T02:58:56;7.90;;;6.90;;
16854;SDS011;8543;54.522;18.550;2022-08-05T03:01:23;8.10;;;7.10;;
16854;SDS011;8543;54.522;18.550;2022-08-05T03:03:51;8.90;;;7.80;;
16854;SDS011;8543;54.522;18.550;2022-08-05T03:06:18;9.70;;;8.20;;
16854;SDS011;8543;54.522;18.550;2022-08-05T03:08:45;9.50;;;7.80;;
16854;SDS011;8543;54.522;18.550;2022-08-05T03:11:22;10.70;;;7.40;;
16854;SDS011;8543;54.522;18.550;2022-08-05T03:13:48;8.00;;;6.80;;
16854;SDS011;8543;54.522;18.550;2022-08-05T03:16:14;8.10;;;7.20;;
16854;SDS011;8543;54.522;18.550;2022-08-05T03:18:40;8.70;;;7.00;;
16854;SDS011;8543;54.522;18.550;2022-08-05T03:21:06;8.60;;;6.70;;
16854;SDS011;8543;54.522;18.550;2022-08-05T03:23:32;7.10;;;6.40;;
16854;SDS011;8543;54.522;18.550;2022-08-05T03:25:58;8.30;;;6.50;;
16854;SDS011;8543;54.522;18.550;2022-08-05T03:28:24;10.20;;;6.80;;
16854;SDS011;8543;54.522;18.550;2022-08-05T03:30:49;7.00;;;5.80;;
16854;SDS011;8543;54.522;18.550;2022-08-05T03:33:15;10.40;;;8.60;;
16854;SDS011;8543;54.522;18.550;2022-08-05T03:35:43;10.10;;;9.10;;
16854;SDS011;8543;54.522;18.550;2022-08-05T03:38:10;9.80;;;8.50;;
16854;SDS011;8543;54.522;18.550;2022-08-05T03:40:38;10.30;;;8.90;;
16854;SDS011;8543;54.522;18.550;2022-08-05T03:43:07;9.40;;;8.10;;
16854;SDS011;8543;54.522;18.550;2022-08-05T03:45:32;8.20;;;7.30;;
16854;SDS011;8543;54.522;18.550;2022-08-05T03:47:58;10.60;;;8.90;;
16854;SDS011;8543;54.522;18.550;2022-08-05T03:50:23;9.60;;;8.60;;
16854;SDS011;8543;54.522;18.550;2022-08-05T03:58:31;9.90;;;8.90;;
16854;SDS011;8543;54.522;18.550;2022-08-05T04:01:00;9.70;;;8.80;;
16854;SDS011;8543;54.522;18.550;2022-08-05T04:03:26;9.80;;;8.80;;
16854;SDS011;8543;54.522;18.550;2022-08-05T04:05:53;10.40;;;8.50;;
16854;SDS011;8543;54.522;18.550;2022-08-05T04:08:19;10.50;;;8.40;;
16854;SDS011;8543;54.522;18.550;2022-08-05T04:10:44;11.00;;;8.80;;
16854;SDS011;8543;54.522;18.550;2022-08-05T04:13:10;9.90;;;8.90;;
16854;SDS011;8543;54.522;18.550;2022-08-05T04:15:35;9.50;;;8.50;;
16854;SDS011;8543;54.522;18.550;2022-08-05T04:18:02;9.80;;;8.70;;
16854;SDS011;8543;54.522;18.550;2022-08-05T04:20:29;9.50;;;8.60;;
16854;SDS011;8543;54.522;18.550;2022-08-05T04:22:54;10.00;;;8.80;;
16854;SDS011;8543;54.522;18.550;2022-08-05T04:25:20;11.20;;;8.50;;
16854;SDS011;8543;54.522;18.550;2022-08-05T04:27:45;10.20;;;8.60;;
16854;SDS011;8543;54.522;18.550;2022-08-05T04:30:10;9.10;;;8.20;;
16854;SDS011;8543;54.522;18.550;2022-08-05T04:32:36;10.40;;;9.30;;
16854;SDS011;8543;54.522;18.550;2022-08-05T04:35:01;11.90;;;9.30;;
16854;SDS011;8543;54.522;18.550;2022-08-05T04:37:27;13.00;;;9.40;;
16854;SDS011;8543;54.522;18.550;2022-08-05T04:39:52;9.80;;;8.90;;
16854;SDS011;8543;54.522;18.550;2022-08-05T04:42:18;9.70;;;8.80;;
16854;SDS011;8543;54.522;18.550;2022-08-05T04:44:43;9.90;;;8.90;;
16854;SDS011;8543;54.522;18.550;2022-08-05T04:47:08;13.10;;;9.70;;
16854;SDS011;8543;54.522;18.550;2022-08-05T04:49:34;10.20;;;9.20;;
16854;SDS011;8543;54.522;18.550;2022-08-05T04:51:59;10.20;;;9.10;;
16854;SDS011;8543;54.522;18.550;2022-08-05T04:54:24;10.00;;;9.00;;
16854;SDS011;8543;54.522;18.550;2022-08-05T04:56:54;10.60;;;8.70;;
16854;SDS011;8543;54.522;18.550;2022-08-05T04:59:19;10.90;;;9.10;;
16854;SDS011;8543;54.522;18.550;2022-08-05T05:01:46;11.30;;;8.30;;
16854;SDS011;8543;54.522;18.550;2022-08-05T05:04:12;9.40;;;8.50;;
16854;SDS011;8543;54.522;18.550;2022-08-05T05:06:38;9.60;;;8.70;;
16854;SDS011;8543;54.522;18.550;2022-08-05T05:09:03;10.60;;;8.20;;
16854;SDS011;8543;54.522;18.550;2022-08-05T05:11:28;9.40;;;8.00;;
16854;SDS011;8543;54.522;18.550;2022-08-05T05:13:54;8.60;;;7.70;;
16854;SDS011;8543;54.522;18.550;2022-08-05T05:16:19;11.50;;;7.40;;
16854;SDS011;8543;54.522;18.550;2022-08-05T05:18:44;8.80;;;7.20;;
16854;SDS011;8543;54.522;18.550;2022-08-05T05:21:10;11.10;;;7.70;;
16854;SDS011;8543;54.522;18.550;2022-08-05T05:23:35;8.90;;;8.00;;
16854;SDS011;8543;54.522;18.550;2022-08-05T05:26:00;8.70;;;7.50;;
16854;SDS011;8543;54.522;18.550;2022-08-05T05:28:26;8.50;;;7.60;;
16854;SDS011;8543;54.522;18.550;2022-08-05T05:30:51;12.20;;;8.60;;
16854;SDS011;8543;54.522;18.550;2022-08-05T05:33:17;9.40;;;8.20;;
16854;SDS011;8543;54.522;18.550;2022-08-05T05:35:45;10.30;;;8.00;;
16854;SDS011;8543;54.522;18.550;2022-08-05T05:38:11;10.10;;;7.90;;
16854;SDS011;8543;54.522;18.550;2022-08-05T05:40:36;8.50;;;7.50;;
16854;SDS011;8543;54.522;18.550;2022-08-05T05:43:02;9.90;;;7.90;;
16854;SDS011;8543;54.522;18.550;2022-08-05T05:45:27;8.70;;;7.90;;
16854;SDS011;8543;54.522;18.550;2022-08-05T05:47:53;9.10;;;8.10;;
16854;SDS011;8543;54.522;18.550;2022-08-05T05:50:19;8.80;;;7.50;;
16854;SDS011;8543;54.522;18.550;2022-08-05T05:52:45;10.00;;;7.30;;
16854;SDS011;8543;54.522;18.550;2022-08-05T05:55:11;8.90;;;7.60;;
16854;SDS011;8543;54.522;18.550;2022-08-05T05:57:38;8.60;;;7.50;;
16854;SDS011;8543;54.522;18.550;2022-08-05T06:00:08;8.20;;;7.30;;
16854;SDS011;8543;54.522;18.550;2022-08-05T06:02:35;11.20;;;7.60;;
16854;SDS011;8543;54.522;18.550;2022-08-05T06:05:01;9.00;;;7.50;;
16854;SDS011;8543;54.522;18.550;2022-08-05T06:07:26;10.70;;;7.70;;
16854;SDS011;8543;54.522;18.550;2022-08-05T06:09:52;7.40;;;6.70;;
16854;SDS011;8543;54.522;18.550;2022-08-05T06:12:17;8.70;;;7.10;;
16854;SDS011;8543;54.522;18.550;2022-08-05T06:14:42;10.90;;;7.60;;
16854;SDS011;8543;54.522;18.550;2022-08-05T06:17:08;9.60;;;7.20;;
16854;SDS011;8543;54.522;18.550;2022-08-05T06:19:37;9.60;;;7.40;;
16854;SDS011;8543;54.522;18.550;2022-08-05T06:22:03;11.60;;;7.60;;
16854;SDS011;8543;54.522;18.550;2022-08-05T06:24:30;10.90;;;8.00;;
16854;SDS011;8543;54.522;18.550;2022-08-05T06:26:55;11.20;;;7.30;;
16854;SDS011;8543;54.522;18.550;2022-08-05T06:29:21;8.30;;;7.20;;
16854;SDS011;8543;54.522;18.550;2022-08-05T06:31:47;9.00;;;8.00;;
16854;SDS011;8543;54.522;18.550;2022-08-05T06:34:12;10.10;;;7.60;;
16854;SDS011;8543;54.522;18.550;2022-08-05T06:36:37;8.50;;;7.40;;
16854;SDS011;8543;54.522;18.550;2022-08-05T06:39:03;10.20;;;7.40;;
16854;SDS011;8543;54.522;18.550;2022-08-05T06:41:28;9.30;;;7.20;;
16854;SDS011;8543;54.522;18.550;2022-08-05T06:43:54;9.70;;;7.00;;
16854;SDS011;8543;54.522;18.550;2022-08-05T06:46:19;12.60;;;7.60;;
16854;SDS011;8543;54.522;18.550;2022-08-05T06:48:44;9.20;;;7.00;;
16854;SDS011;8543;54.522;18.550;2022-08-05T06:51:10;10.30;;;7.20;;
16854;SDS011;8543;54.522;18.550;2022-08-05T06:53:35;12.20;;;7.50;;
16854;SDS011;8543;54.522;18.550;2022-08-05T06:56:01;11.80;;;7.50;;
16854;SDS011;8543;54.522;18.550;2022-08-05T06:58:30;13.10;;;7.60;;
16854;SDS011;8543;54.522;18.550;2022-08-05T07:01:02;8.90;;;7.40;;
16854;SDS011;8543;54.522;18.550;2022-08-05T07:03:29;10.10;;;7.20;;
16854;SDS011;8543;54.522;18.550;2022-08-05T07:05:56;12.20;;;7.30;;
16854;SDS011;8543;54.522;18.550;2022-08-05T07:08:21;12.50;;;7.50;;
16854;SDS011;8543;54.522;18.550;2022-08-05T07:10:47;11.00;;;7.50;;
16854;SDS011;8543;54.522;18.550;2022-08-05T07:13:12;11.70;;;7.10;;
16854;SDS011;8543;54.522;18.550;2022-08-05T07:18:40;10.50;;;7.40;;
16854;SDS011;8543;54.522;18.550;2022-08-05T07:21:05;9.00;;;7.50;;
16854;SDS011;8543;54.522;18.550;2022-08-05T07:23:31;10.50;;;7.30;;
16854;SDS011;8543;54.522;18.550;2022-08-05T07:25:57;8.40;;;7.00;;
16854;SDS011;8543;54.522;18.550;2022-08-05T07:28:22;10.20;;;6.70;;
16854;SDS011;8543;54.522;18.550;2022-08-05T07:30:49;7.50;;;6.40;;
16854;SDS011;8543;54.522;18.550;2022-08-05T07:33:14;11.10;;;7.00;;
16854;SDS011;8543;54.522;18.550;2022-08-05T07:35:40;10.20;;;6.70;;
16854;SDS011;8543;54.522;18.550;2022-08-05T07:38:05;10.20;;;7.10;;
16854;SDS011;8543;54.522;18.550;2022-08-05T07:40:30;9.90;;;6.70;;
16854;SDS011;8543;54.522;18.550;2022-08-05T07:42:56;9.50;;;6.70;;
16854;SDS011;8543;54.522;18.550;2022-08-05T07:45:21;10.30;;;6.60;;
16854;SDS011;8543;54.522;18.550;2022-08-05T07:47:47;9.50;;;6.50;;
16854;SDS011;8543;54.522;18.550;2022-08-05T07:50:12;8.10;;;6.40;;
16854;SDS011;8543;54.522;18.550;2022-08-05T07:52:38;9.40;;;6.30;;
16854;SDS011;8543;54.522;18.550;2022-08-05T07:55:04;11.80;;;6.60;;
16854;SDS011;8543;54.522;18.550;2022-08-05T07:57:30;8.90;;;6.10;;
16854;SDS011;8543;54.522;18.550;2022-08-05T07:59:56;6.60;;;5.50;;
16854;SDS011;8543;54.522;18.550;2022-08-05T08:02:24;9.00;;;6.10;;
16854;SDS011;8543;54.522;18.550;2022-08-05T08:04:51;10.70;;;5.90;;
16854;SDS011;8543;54.522;18.550;2022-08-05T08:07:17;8.60;;;5.60;;
16854;SDS011;8543;54.522;18.550;2022-08-05T08:09:43;8.00;;;5.80;;
16854;SDS011;8543;54.522;18.550;2022-08-05T08:12:09;9.70;;;5.90;;
16854;SDS011;8543;54.522;18.550;2022-08-05T08:14:37;7.40;;;5.50;;
16854;SDS011;8543;54.522;18.550;2022-08-05T08:17:03;7.90;;;5.90;;
16854;SDS011;8543;54.522;18.550;2022-08-05T08:19:28;7.40;;;5.60;;
16854;SDS011;8543;54.522;18.550;2022-08-05T08:21:54;6.30;;;5.50;;
16854;SDS011;8543;54.522;18.550;2022-08-05T08:24:19;8.40;;;5.50;;
16854;SDS011;8543;54.522;18.550;2022-08-05T08:26:44;7.10;;;5.60;;
16854;SDS011;8543;54.522;18.550;2022-08-05T08:29:10;8.10;;;5.60;;
16854;SDS011;8543;54.522;18.550;2022-08-05T08:31:35;9.10;;;5.30;;
16854;SDS011;8543;54.522;18.550;2022-08-05T08:34:00;9.70;;;5.50;;
16854;SDS011;8543;54.522;18.550;2022-08-05T08:36:26;9.10;;;5.90;;
16854;SDS011;8543;54.522;18.550;2022-08-05T08:38:51;8.20;;;5.30;;
16854;SDS011;8543;54.522;18.550;2022-08-05T08:41:19;8.00;;;5.40;;
16854;SDS011;8543;54.522;18.550;2022-08-05T08:43:46;6.00;;;5.20;;
16854;SDS011;8543;54.522;18.550;2022-08-05T08:46:12;6.10;;;4.90;;
16854;SDS011;8543;54.522;18.550;2022-08-05T08:48:37;6.00;;;4.80;;
16854;SDS011;8543;54.522;18.550;2022-08-05T08:51:04;8.20;;;4.90;;
16854;SDS011;8543;54.522;18.550;2022-08-05T08:53:34;7.50;;;5.00;;
16854;SDS011;8543;54.522;18.550;2022-08-05T08:56:02;9.30;;;4.90;;
16854;SDS011;8543;54.522;18.550;2022-08-05T08:58:28;6.00;;;4.70;;
16854;SDS011;8543;54.522;18.550;2022-08-05T09:00:54;6.30;;;4.40;;
16854;SDS011;8543;54.522;18.550;2022-08-05T09:03:19;6.10;;;4.60;;
16854;SDS011;8543;54.522;18.550;2022-08-05T09:05:46;6.20;;;4.40;;
16854;SDS011;8543;54.522;18.550;2022-08-05T09:08:11;6.30;;;4.50;;
16854;SDS011;8543;54.522;18.550;2022-08-05T09:10:39;6.10;;;4.40;;
16854;SDS011;8543;54.522;18.550;2022-08-05T09:13:05;6.10;;;4.40;;
16854;SDS011;8543;54.522;18.550;2022-08-05T09:15:31;6.30;;;4.00;;
16854;SDS011;8543;54.522;18.550;2022-08-05T09:17:57;4.40;;;3.90;;
16854;SDS011;8543;54.522;18.550;2022-08-05T09:20:23;4.50;;;4.00;;
16854;SDS011;8543;54.522;18.550;2022-08-05T09:25:26;5.20;;;4.30;;
16854;SDS011;8543;54.522;18.550;2022-08-05T09:27:52;7.40;;;4.40;;
16854;SDS011;8543;54.522;18.550;2022-08-05T09:30:17;7.70;;;4.40;;
16854;SDS011;8543;54.522;18.550;2022-08-05T09:32:42;5.30;;;4.10;;
16854;SDS011;8543;54.522;18.550;2022-08-05T09:35:12;5.70;;;4.20;;
16854;SDS011;8543;54.522;18.550;2022-08-05T09:37:47;6.20;;;4.00;;
16854;SDS011;8543;54.522;18.550;2022-08-05T09:43:00;5.70;;;4.00;;
16854;SDS011;8543;54.522;18.550;2022-08-05T09:45:34;5.80;;;3.60;;
16854;SDS011;8543;54.522;18.550;2022-08-05T09:48:22;5.60;;;3.70;;
16854;SDS011;8543;54.522;18.550;2022-08-05T09:50:53;5.10;;;3.60;;
16854;SDS011;8543;54.522;18.550;2022-08-05T09:53:20;6.10;;;3.90;;
16854;SDS011;8543;54.522;18.550;2022-08-05T09:55:49;5.70;;;4.10;;
16854;SDS011;8543;54.522;18.550;2022-08-05T09:58:16;5.00;;;4.00;;
16854;SDS011;8543;54.522;18.550;2022-08-05T10:00:57;5.70;;;3.90;;
16854;SDS011;8543;54.522;18.550;2022-08-05T10:03:28;6.80;;;3.70;;
16854;SDS011;8543;54.522;18.550;2022-08-05T10:06:01;6.00;;;3.60;;
16854;SDS011;8543;54.522;18.550;2022-08-05T10:08:37;5.00;;;3.90;;
16854;SDS011;8543;54.522;18.550;2022-08-05T10:11:03;7.30;;;3.90;;
16854;SDS011;8543;54.522;18.550;2022-08-05T10:13:31;5.70;;;3.70;;
16854;SDS011;8543;54.522;18.550;2022-08-05T10:16:00;5.10;;;3.80;;
16854;SDS011;8543;54.522;18.550;2022-08-05T10:18:26;5.70;;;3.80;;
16854;SDS011;8543;54.522;18.550;2022-08-05T10:21:02;4.50;;;3.80;;
16854;SDS011;8543;54.522;18.550;2022-08-05T10:23:32;5.80;;;3.50;;
16854;SDS011;8543;54.522;18.550;2022-08-05T10:26:00;4.90;;;3.60;;
16854;SDS011;8543;54.522;18.550;2022-08-05T10:28:27;5.10;;;3.70;;
16854;SDS011;8543;54.522;18.550;2022-08-05T10:30:54;5.00;;;4.20;;
16854;SDS011;8543;54.522;18.550;2022-08-05T10:33:21;5.00;;;3.90;;
16854;SDS011;8543;54.522;18.550;2022-08-05T10:35:48;5.10;;;3.80;;
16854;SDS011;8543;54.522;18.550;2022-08-05T10:38:14;5.80;;;3.80;;
16854;SDS011;8543;54.522;18.550;2022-08-05T10:43:32;5.80;;;3.80;;
16854;SDS011;8543;54.522;18.550;2022-08-05T10:45:59;5.90;;;4.00;;
16854;SDS011;8543;54.522;18.550;2022-08-05T10:48:28;6.80;;;3.90;;
16854;SDS011;8543;54.522;18.550;2022-08-05T10:51:02;5.30;;;3.90;;
16854;SDS011;8543;54.522;18.550;2022-08-05T10:53:41;6.70;;;3.70;;
16854;SDS011;8543;54.522;18.550;2022-08-05T10:56:10;5.10;;;3.80;;
16854;SDS011;8543;54.522;18.550;2022-08-05T10:58:46;5.40;;;3.70;;
16854;SDS011;8543;54.522;18.550;2022-08-05T11:01:12;8.20;;;4.00;;
16854;SDS011;8543;54.522;18.550;2022-08-05T11:06:25;4.50;;;3.70;;
16854;SDS011;8543;54.522;18.550;2022-08-05T11:09:10;7.60;;;4.00;;
16854;SDS011;8543;54.522;18.550;2022-08-05T11:11:36;5.30;;;3.80;;
16854;SDS011;8543;54.522;18.550;2022-08-05T11:14:01;6.80;;;3.60;;
16854;SDS011;8543;54.522;18.550;2022-08-05T11:16:28;4.30;;;3.90;;
16854;SDS011;8543;54.522;18.550;2022-08-05T11:21:52;5.40;;;3.80;;
16854;SDS011;8543;54.522;18.550;2022-08-05T11:24:18;8.50;;;3.90;;
16854;SDS011;8543;54.522;18.550;2022-08-05T11:26:45;4.20;;;3.80;;
16854;SDS011;8543;54.522;18.550;2022-08-05T11:32:28;5.80;;;4.00;;
16854;SDS011;8543;54.522;18.550;2022-08-05T11:34:54;6.70;;;4.00;;
16854;SDS011;8543;54.522;18.550;2022-08-05T11:37:40;6.10;;;3.80;;
16854;SDS011;8543;54.522;18.550;2022-08-05T11:40:06;5.70;;;4.00;;
16854;SDS011;8543;54.522;18.550;2022-08-05T11:42:32;7.10;;;3.60;;
16854;SDS011;8543;54.522;18.550;2022-08-05T11:45:02;5.00;;;3.60;;
16854;SDS011;8543;54.522;18.550;2022-08-05T11:47:30;4.30;;;3.70;;
16854;SDS011;8543;54.522;18.550;2022-08-05T11:49:56;5.20;;;3.60;;
16854;SDS011;8543;54.522;18.550;2022-08-05T11:52:23;5.80;;;3.50;;
16854;SDS011;8543;54.522;18.550;2022-08-05T11:54:50;5.60;;;3.90;;
16854;SDS011;8543;54.522;18.550;2022-08-05T11:57:17;6.00;;;3.80;;
16854;SDS011;8543;54.522;18.550;2022-08-05T11:59:42;5.80;;;3.70;;
16854;SDS011;8543;54.522;18.550;2022-08-05T12:02:07;5.10;;;3.80;;
16854;SDS011;8543;54.522;18.550;2022-08-05T12:04:37;8.20;;;3.80;;
16854;SDS011;8543;54.522;18.550;2022-08-05T12:07:08;4.80;;;3.90;;
16854;SDS011;8543;54.522;18.550;2022-08-05T12:09:41;4.70;;;3.90;;
16854;SDS011;8543;54.522;18.550;2022-08-05T12:12:08;5.60;;;4.00;;
16854;SDS011;8543;54.522;18.550;2022-08-05T12:14:43;6.30;;;3.90;;
16854;SDS011;8543;54.522;18.550;2022-08-05T12:17:10;4.70;;;3.60;;
16854;SDS011;8543;54.522;18.550;2022-08-05T12:19:49;5.70;;;4.40;;
16854;SDS011;8543;54.522;18.550;2022-08-05T12:22:21;5.20;;;3.70;;
16854;SDS011;8543;54.522;18.550;2022-08-05T12:24:51;4.80;;;3.70;;
16854;SDS011;8543;54.522;18.550;2022-08-05T12:27:21;6.80;;;3.90;;
16854;SDS011;8543;54.522;18.550;2022-08-05T12:30:08;5.60;;;3.70;;
16854;SDS011;8543;54.522;18.550;2022-08-05T12:32:34;5.40;;;3.60;;
16854;SDS011;8543;54.522;18.550;2022-08-05T12:35:09;5.70;;;3.70;;
16854;SDS011;8543;54.522;18.550;2022-08-05T12:37:35;6.20;;;3.80;;
16854;SDS011;8543;54.522;18.550;2022-08-05T12:40:00;5.20;;;3.70;;
16854;SDS011;8543;54.522;18.550;2022-08-05T12:42:27;5.20;;;3.50;;
16854;SDS011;8543;54.522;18.550;2022-08-05T12:45:00;5.90;;;3.50;;
16854;SDS011;8543;54.522;18.550;2022-08-05T12:47:27;5.60;;;3.60;;
16854;SDS011;8543;54.522;18.550;2022-08-05T12:49:53;6.70;;;3.60;;
16854;SDS011;8543;54.522;18.550;2022-08-05T12:52:19;5.00;;;3.70;;
16854;SDS011;8543;54.522;18.550;2022-08-05T12:54:45;5.60;;;3.80;;
16854;SDS011;8543;54.522;18.550;2022-08-05T12:57:13;8.70;;;4.20;;
16854;SDS011;8543;54.522;18.550;2022-08-05T13:02:15;5.60;;;3.40;;
16854;SDS011;8543;54.522;18.550;2022-08-05T13:04:43;4.90;;;3.70;;
16854;SDS011;8543;54.522;18.550;2022-08-05T13:07:12;5.60;;;3.60;;
16854;SDS011;8543;54.522;18.550;2022-08-05T13:09:42;4.50;;;3.60;;
16854;SDS011;8543;54.522;18.550;2022-08-05T13:12:13;5.80;;;3.50;;
16854;SDS011;8543;54.522;18.550;2022-08-05T13:19:41;5.40;;;3.60;;
16854;SDS011;8543;54.522;18.550;2022-08-05T13:22:21;4.50;;;3.40;;
16854;SDS011;8543;54.522;18.550;2022-08-05T13:24:47;6.20;;;3.90;;
16854;SDS011;8543;54.522;18.550;2022-08-05T13:27:12;6.10;;;3.70;;
16854;SDS011;8543;54.522;18.550;2022-08-05T13:29:58;4.60;;;3.70;;
16854;SDS011;8543;54.522;18.550;2022-08-05T13:32:24;4.10;;;3.20;;
16854;SDS011;8543;54.522;18.550;2022-08-05T13:34:50;6.20;;;3.70;;
16854;SDS011;8543;54.522;18.550;2022-08-05T13:37:16;4.80;;;3.80;;
16854;SDS011;8543;54.522;18.550;2022-08-05T13:39:42;7.20;;;3.70;;
16854;SDS011;8543;54.522;18.550;2022-08-05T13:42:08;6.60;;;3.80;;
16854;SDS011;8543;54.522;18.550;2022-08-05T13:44:34;5.60;;;3.50;;
16854;SDS011;8543;54.522;18.550;2022-08-05T13:46:59;5.30;;;3.80;;
16854;SDS011;8543;54.522;18.550;2022-08-05T13:49:25;6.70;;;3.80;;
16854;SDS011;8543;54.522;18.550;2022-08-05T13:51:50;7.70;;;3.60;;
16854;SDS011;8543;54.522;18.550;2022-08-05T13:54:16;4.40;;;3.60;;
16854;SDS011;8543;54.522;18.550;2022-08-05T13:56:42;4.60;;;3.70;;
16854;SDS011;8543;54.522;18.550;2022-08-05T13:59:08;8.50;;;3.90;;
16854;SDS011;8543;54.522;18.550;2022-08-05T14:01:33;5.80;;;3.60;;
16854;SDS011;8543;54.522;18.550;2022-08-05T14:03:59;5.20;;;3.20;;
16854;SDS011;8543;54.522;18.550;2022-08-05T14:06:43;6.50;;;3.90;;
16854;SDS011;8543;54.522;18.550;2022-08-05T14:09:08;4.60;;;3.80;;
16854;SDS011;8543;54.522;18.550;2022-08-05T14:11:34;6.40;;;3.70;;
16854;SDS011;8543;54.522;18.550;2022-08-05T14:14:03;6.10;;;3.80;;
16854;SDS011;8543;54.522;18.550;2022-08-05T14:16:28;5.20;;;4.00;;
16854;SDS011;8543;54.522;18.550;2022-08-05T14:18:54;5.00;;;3.80;;
16854;SDS011;8543;54.522;18.550;2022-08-05T14:21:20;6.10;;;4.00;;
16854;SDS011;8543;54.522;18.550;2022-08-05T14:23:45;7.40;;;3.90;;
16854;SDS011;8543;54.522;18.550;2022-08-05T14:26:10;5.60;;;3.50;;
16854;SDS011;8543;54.522;18.550;2022-08-05T14:28:36;9.60;;;4.20;;
16854;SDS011;8543;54.522;18.550;2022-08-05T14:31:01;6.60;;;5.90;;
16854;SDS011;8543;54.522;18.550;2022-08-05T14:33:27;7.70;;;6.80;;
16854;SDS011;8543;54.522;18.550;2022-08-05T14:35:53;11.70;;;6.70;;
16854;SDS011;8543;54.522;18.550;2022-08-05T14:38:18;10.10;;;7.00;;
16854;SDS011;8543;54.522;18.550;2022-08-05T14:40:43;10.10;;;7.10;;
16854;SDS011;8543;54.522;18.550;2022-08-05T14:43:09;8.80;;;6.40;;
16854;SDS011;8543;54.522;18.550;2022-08-05T14:45:34;9.80;;;7.20;;
16854;SDS011;8543;54.522;18.550;2022-08-05T14:47:59;9.10;;;6.90;;
16854;SDS011;8543;54.522;18.550;2022-08-05T14:50:25;10.90;;;7.50;;
16854;SDS011;8543;54.522;18.550;2022-08-05T14:52:50;10.40;;;7.00;;
16854;SDS011;8543;54.522;18.550;2022-08-05T14:55:16;10.30;;;7.20;;
16854;SDS011;8543;54.522;18.550;2022-08-05T14:57:41;9.80;;;7.30;;
16854;SDS011;8543;54.522;18.550;2022-08-05T15:00:07;11.50;;;7.60;;
16854;SDS011;8543;54.522;18.550;2022-08-05T15:02:33;8.60;;;7.00;;
16854;SDS011;8543;54.522;18.550;2022-08-05T15:04:58;14.10;;;7.60;;
16854;SDS011;8543;54.522;18.550;2022-08-05T15:07:23;8.10;;;7.40;;
16854;SDS011;8543;54.522;18.550;2022-08-05T15:09:49;9.50;;;7.30;;
16854;SDS011;8543;54.522;18.550;2022-08-05T15:12:14;8.90;;;7.40;;
16854;SDS011;8543;54.522;18.550;2022-08-05T15:14:39;9.90;;;7.30;;
16854;SDS011;8543;54.522;18.550;2022-08-05T15:17:05;8.30;;;7.30;;
16854;SDS011;8543;54.522;18.550;2022-08-05T15:19:30;8.00;;;7.10;;
16854;SDS011;8543;54.522;18.550;2022-08-05T15:21:56;8.50;;;7.50;;
16854;SDS011;8543;54.522;18.550;2022-08-05T15:24:22;8.70;;;7.20;;
16854;SDS011;8543;54.522;18.550;2022-08-05T15:26:47;10.30;;;7.40;;
16854;SDS011;8543;54.522;18.550;2022-08-05T15:29:13;8.00;;;6.90;;
16854;SDS011;8543;54.522;18.550;2022-08-05T15:31:38;8.20;;;7.00;;
16854;SDS011;8543;54.522;18.550;2022-08-05T15:34:04;12.90;;;7.60;;
16854;SDS011;8543;54.522;18.550;2022-08-05T15:36:29;9.00;;;7.50;;
16854;SDS011;8543;54.522;18.550;2022-08-05T15:38:54;8.10;;;7.30;;
16854;SDS011;8543;54.522;18.550;2022-08-05T15:41:20;9.20;;;7.30;;